NEARBY METAR REPORTS

 

EPKK - Krakow/Balice, Poland
Distance from station: W 81km
Updated: 20/04/2014 00:00
Few Clouds
Few Clouds
 Wind from ENE
Wind: ENE 15 km/h
Temperature: 9°C
Wind Chill: 7°C
Dew Point: 8°C
Humidity: 94%
Barometer: 1013 hPa
Clouds: Few Clouds
Visibility: 10 km
Cloud details: Few Clouds 396 m
2014/04/19 22:00 EPKK 192200Z 07008KT 9999 FEW013 09/08 Q1013
EPRZ - Rzeszow/Jasionka, Poland
Distance from station: E 81km
Updated: 20/04/2014 00:00
Overcast
Overcast
 Wind from NE
Wind: NE 9 km/h
Temperature: 10°C
Wind Chill: 9°C
Dew Point: 8°C
Humidity: 88%
Barometer: 1014 hPa
Clouds: Overcast
Visibility: 10 km
Cloud details: Mostly cloudy 274 m
Overcast 396 m
2014/04/19 22:00 EPRZ 192200Z 04005KT 9999 BKN009 OVC013 10/08 Q1014
 
EPKT - Katowice/Pyrzowice, Poland
Distance from station: WNW 141km
Updated: 20/04/2014 00:00
Partly cloudy
Partly cloudy
 Wind from ENE
Wind: ENE 15 km/h
Temperature: 9°C
Wind Chill: 7°C
Dew Point: 8°C
Humidity: 94%
Barometer: 1013 hPa
Clouds: Partly cloudy
Visibility: 10 km
Cloud details: Partly cloudy 305 m
Partly cloudy 457 m
2014/04/19 22:00 EPKT 192200Z 06008KT 9999 SCT010 SCT015 09/08 Q1013
EPWA - Warsaw/Okecie, Poland
Distance from station: N 240km
Updated: 20/04/2014 00:00
Clear
Clear
 Wind from E
Wind: E 19 km/h
Temperature: 14°C
Dew Point: 8°C
Humidity: 67%
Barometer: 1016 hPa
Summary: Clear
Visibility: greater than 10 km
2014/04/19 22:00 EPWA 192200Z 08010KT CAVOK 14/08 Q1016 NOSIG
 
EPLL - Lodz/Lublinek, Poland
Distance from station: NNW 218km
Updated: 20/04/2014 00:00
Clear
Clear
 Wind from E
Wind: E 13 km/h
Temperature: 13°C
Dew Point: 8°C
Humidity: 72%
Barometer: 1015 hPa
Summary: Clear
Visibility: greater than 10 km
2014/04/19 22:00 EPLL 192200Z 08007KT 050V110 CAVOK 13/08 Q1015
EPWR - Wroclaw/Strachowice, Poland
Distance from station: WNW 311km
Updated: 20/04/2014 00:00
Clear
Clear
 Wind from E
Wind: E 20 km/h
Temperature: 15°C
Dew Point: 8°C
Humidity: 63%
Barometer: 1013 hPa
Summary: Clear
Visibility: greater than 10 km
2014/04/19 22:00 EPWR 192200Z 08011KT CAVOK 15/08 Q1013
 
EPGD - Gdansk/Rebiechowo, Poland
Distance from station: NW 553km
Updated: 20/04/2014 00:00
Clear
Clear
 Wind from ENE
Wind: ENE 13 km/h
Temperature: 12°C
Dew Point: 8°C
Humidity: 77%
Barometer: 1019 hPa
Summary: Clear
Visibility: greater than 10 km
2014/04/19 22:00 EPGD 192200Z 07007KT 050V120 CAVOK 12/08 Q1019
EPSC - Szczecin/Goleniow, Poland
Distance from station: WNW 635km
Updated: 20/04/2014 00:00
Clear
Clear
 Wind from NE
Wind: NE 11 km/h
Temperature: 11°C
Dew Point: 8°C
Humidity: 82%
Barometer: 1017 hPa
Summary: Clear
Visibility: greater than 10 km
2014/04/19 22:00 EPSC 192200Z 05006KT CAVOK 11/08 Q1017